sensor_id;sensor_type;location;lat;lon;timestamp;temperature;humidity
21104;DHT22;10710;53.398;-1.514;2023-11-19T00:02:15;12.20;99.90
21104;DHT22;10710;53.398;-1.514;2023-11-19T00:04:59;12.20;99.90
21104;DHT22;10710;53.398;-1.514;2023-11-19T00:07:43;12.20;99.90
21104;DHT22;10710;53.398;-1.514;2023-11-19T00:10:28;12.20;99.90
21104;DHT22;10710;53.398;-1.514;2023-11-19T00:13:12;12.20;99.90
21104;DHT22;10710;53.398;-1.514;2023-11-19T00:15:56;12.20;99.90
21104;DHT22;10710;53.398;-1.514;2023-11-19T00:18:41;12.20;99.90
21104;DHT22;10710;53.398;-1.514;2023-11-19T00:21:25;12.30;99.90
21104;DHT22;10710;53.398;-1.514;2023-11-19T00:24:13;12.30;99.90
21104;DHT22;10710;53.398;-1.514;2023-11-19T00:27:00;12.20;99.90
21104;DHT22;10710;53.398;-1.514;2023-11-19T00:29:44;12.20;99.90
21104;DHT22;10710;53.398;-1.514;2023-11-19T00:32:29;12.40;99.90
21104;DHT22;10710;53.398;-1.514;2023-11-19T00:35:13;12.40;99.90
21104;DHT22;10710;53.398;-1.514;2023-11-19T00:37:58;12.50;99.90
21104;DHT22;10710;53.398;-1.514;2023-11-19T00:40:42;12.40;99.90
21104;DHT22;10710;53.398;-1.514;2023-11-19T00:43:28;12.50;99.90
21104;DHT22;10710;53.398;-1.514;2023-11-19T00:46:12;12.60;99.90
21104;DHT22;10710;53.398;-1.514;2023-11-19T00:48:57;12.70;99.90
21104;DHT22;10710;53.398;-1.514;2023-11-19T00:51:43;12.60;99.90
21104;DHT22;10710;53.398;-1.514;2023-11-19T00:54:29;12.70;99.90
21104;DHT22;10710;53.398;-1.514;2023-11-19T00:57:13;12.70;99.90
21104;DHT22;10710;53.398;-1.514;2023-11-19T00:59:57;12.60;99.90
21104;DHT22;10710;53.398;-1.514;2023-11-19T01:02:41;12.50;99.90
21104;DHT22;10710;53.398;-1.514;2023-11-19T01:05:25;12.60;99.90
21104;DHT22;10710;53.398;-1.514;2023-11-19T01:08:10;12.50;99.90
21104;DHT22;10710;53.398;-1.514;2023-11-19T01:10:54;12.40;99.90
21104;DHT22;10710;53.398;-1.514;2023-11-19T01:13:38;12.50;99.90
21104;DHT22;10710;53.398;-1.514;2023-11-19T01:16:22;12.40;99.90
21104;DHT22;10710;53.398;-1.514;2023-11-19T01:19:07;12.40;99.90
21104;DHT22;10710;53.398;-1.514;2023-11-19T01:21:52;12.40;99.90
21104;DHT22;10710;53.398;-1.514;2023-11-19T01:24:36;12.40;99.90
21104;DHT22;10710;53.398;-1.514;2023-11-19T01:27:20;12.30;99.90
21104;DHT22;10710;53.398;-1.514;2023-11-19T01:30:05;12.30;99.90
21104;DHT22;10710;53.398;-1.514;2023-11-19T01:32:50;12.30;99.90
21104;DHT22;10710;53.398;-1.514;2023-11-19T01:35:34;12.20;99.90
21104;DHT22;10710;53.398;-1.514;2023-11-19T01:38:18;12.10;99.90
21104;DHT22;10710;53.398;-1.514;2023-11-19T01:41:03;12.20;99.90
21104;DHT22;10710;53.398;-1.514;2023-11-19T01:43:47;12.30;99.90
21104;DHT22;10710;53.398;-1.514;2023-11-19T01:46:32;12.40;99.90
21104;DHT22;10710;53.398;-1.514;2023-11-19T01:49:17;12.40;99.90
21104;DHT22;10710;53.398;-1.514;2023-11-19T01:52:03;12.40;99.90
21104;DHT22;10710;53.398;-1.514;2023-11-19T01:54:48;12.40;99.90
21104;DHT22;10710;53.398;-1.514;2023-11-19T01:57:32;12.40;99.90
21104;DHT22;10710;53.398;-1.514;2023-11-19T02:00:16;12.50;99.90
21104;DHT22;10710;53.398;-1.514;2023-11-19T02:03:03;12.50;99.90
21104;DHT22;10710;53.398;-1.514;2023-11-19T02:05:48;12.60;99.90
21104;DHT22;10710;53.398;-1.514;2023-11-19T02:08:34;12.50;99.90
21104;DHT22;10710;53.398;-1.514;2023-11-19T02:11:18;12.60;99.90
21104;DHT22;10710;53.398;-1.514;2023-11-19T02:14:03;12.80;99.90
21104;DHT22;10710;53.398;-1.514;2023-11-19T02:16:48;12.60;99.90
21104;DHT22;10710;53.398;-1.514;2023-11-19T02:19:33;12.50;99.90
21104;DHT22;10710;53.398;-1.514;2023-11-19T02:22:17;12.60;99.90
21104;DHT22;10710;53.398;-1.514;2023-11-19T02:25:06;12.70;99.90
21104;DHT22;10710;53.398;-1.514;2023-11-19T02:27:57;12.70;99.90
21104;DHT22;10710;53.398;-1.514;2023-11-19T02:30:43;12.90;99.90
21104;DHT22;10710;53.398;-1.514;2023-11-19T02:33:28;12.90;99.90
21104;DHT22;10710;53.398;-1.514;2023-11-19T02:36:13;12.80;99.90
21104;DHT22;10710;53.398;-1.514;2023-11-19T02:38:58;12.80;99.90
21104;DHT22;10710;53.398;-1.514;2023-11-19T02:41:42;12.80;99.90
21104;DHT22;10710;53.398;-1.514;2023-11-19T02:44:26;12.80;99.90
21104;DHT22;10710;53.398;-1.514;2023-11-19T02:47:13;12.70;99.90
21104;DHT22;10710;53.398;-1.514;2023-11-19T02:49:58;12.80;99.90
21104;DHT22;10710;53.398;-1.514;2023-11-19T02:52:43;12.80;99.90
21104;DHT22;10710;53.398;-1.514;2023-11-19T02:55:27;12.80;99.90
21104;DHT22;10710;53.398;-1.514;2023-11-19T02:58:15;12.80;99.90
21104;DHT22;10710;53.398;-1.514;2023-11-19T03:01:07;12.80;99.90
21104;DHT22;10710;53.398;-1.514;2023-11-19T03:03:57;12.90;99.90
21104;DHT22;10710;53.398;-1.514;2023-11-19T03:06:42;12.90;99.90
21104;DHT22;10710;53.398;-1.514;2023-11-19T03:09:26;12.90;99.90
21104;DHT22;10710;53.398;-1.514;2023-11-19T03:12:10;12.90;99.90
21104;DHT22;10710;53.398;-1.514;2023-11-19T03:14:55;12.90;99.90
21104;DHT22;10710;53.398;-1.514;2023-11-19T03:17:40;13.00;99.90
21104;DHT22;10710;53.398;-1.514;2023-11-19T03:20:24;12.90;99.90
21104;DHT22;10710;53.398;-1.514;2023-11-19T03:23:11;13.00;99.90
21104;DHT22;10710;53.398;-1.514;2023-11-19T03:25:56;12.90;99.90
21104;DHT22;10710;53.398;-1.514;2023-11-19T03:28:41;13.00;99.90
21104;DHT22;10710;53.398;-1.514;2023-11-19T03:31:25;13.00;99.90
21104;DHT22;10710;53.398;-1.514;2023-11-19T03:34:09;13.00;99.90
21104;DHT22;10710;53.398;-1.514;2023-11-19T03:36:54;12.90;99.90
21104;DHT22;10710;53.398;-1.514;2023-11-19T03:39:37;12.90;99.90
21104;DHT22;10710;53.398;-1.514;2023-11-19T03:42:22;12.90;99.90
21104;DHT22;10710;53.398;-1.514;2023-11-19T03:45:07;13.00;99.90
21104;DHT22;10710;53.398;-1.514;2023-11-19T03:47:54;12.80;99.90
21104;DHT22;10710;53.398;-1.514;2023-11-19T03:50:38;12.80;99.90
21104;DHT22;10710;53.398;-1.514;2023-11-19T03:53:22;12.80;99.90
21104;DHT22;10710;53.398;-1.514;2023-11-19T03:56:08;12.70;99.90
21104;DHT22;10710;53.398;-1.514;2023-11-19T03:58:54;12.80;99.90
21104;DHT22;10710;53.398;-1.514;2023-11-19T04:01:38;12.70;99.90
21104;DHT22;10710;53.398;-1.514;2023-11-19T04:04:22;12.60;99.90
21104;DHT22;10710;53.398;-1.514;2023-11-19T04:07:06;12.70;99.90
21104;DHT22;10710;53.398;-1.514;2023-11-19T04:09:51;12.70;99.90
21104;DHT22;10710;53.398;-1.514;2023-11-19T04:12:35;12.80;99.90
21104;DHT22;10710;53.398;-1.514;2023-11-19T04:15:20;12.80;99.90
21104;DHT22;10710;53.398;-1.514;2023-11-19T04:18:04;12.70;99.90
21104;DHT22;10710;53.398;-1.514;2023-11-19T04:20:48;12.70;99.90
21104;DHT22;10710;53.398;-1.514;2023-11-19T04:23:32;12.70;99.90
21104;DHT22;10710;53.398;-1.514;2023-11-19T04:26:16;12.70;99.90
21104;DHT22;10710;53.398;-1.514;2023-11-19T04:29:00;12.80;99.90
21104;DHT22;10710;53.398;-1.514;2023-11-19T04:31:44;12.80;99.90
21104;DHT22;10710;53.398;-1.514;2023-11-19T04:34:29;12.80;99.90
21104;DHT22;10710;53.398;-1.514;2023-11-19T04:37:14;12.70;99.90
21104;DHT22;10710;53.398;-1.514;2023-11-19T04:39:59;12.80;99.90
21104;DHT22;10710;53.398;-1.514;2023-11-19T04:42:44;12.80;99.90
21104;DHT22;10710;53.398;-1.514;2023-11-19T04:45:29;12.80;99.90
21104;DHT22;10710;53.398;-1.514;2023-11-19T04:48:13;12.70;99.90
21104;DHT22;10710;53.398;-1.514;2023-11-19T04:50:57;12.70;99.90
21104;DHT22;10710;53.398;-1.514;2023-11-19T04:53:42;12.70;99.90
21104;DHT22;10710;53.398;-1.514;2023-11-19T04:56:26;12.70;99.90
21104;DHT22;10710;53.398;-1.514;2023-11-19T04:59:10;12.70;99.90
21104;DHT22;10710;53.398;-1.514;2023-11-19T05:01:54;12.60;99.90
21104;DHT22;10710;53.398;-1.514;2023-11-19T05:04:42;12.60;99.90
21104;DHT22;10710;53.398;-1.514;2023-11-19T05:07:28;12.60;99.90
21104;DHT22;10710;53.398;-1.514;2023-11-19T05:10:12;12.60;99.90
21104;DHT22;10710;53.398;-1.514;2023-11-19T05:12:56;12.50;99.90
21104;DHT22;10710;53.398;-1.514;2023-11-19T05:15:41;12.30;99.90
21104;DHT22;10710;53.398;-1.514;2023-11-19T05:18:25;12.20;99.90
21104;DHT22;10710;53.398;-1.514;2023-11-19T05:21:09;12.20;99.90
21104;DHT22;10710;53.398;-1.514;2023-11-19T05:23:53;12.20;99.90
21104;DHT22;10710;53.398;-1.514;2023-11-19T05:26:38;12.20;99.90
21104;DHT22;10710;53.398;-1.514;2023-11-19T05:29:22;12.30;99.90
21104;DHT22;10710;53.398;-1.514;2023-11-19T05:32:06;12.20;99.90
21104;DHT22;10710;53.398;-1.514;2023-11-19T05:34:51;12.20;99.90
21104;DHT22;10710;53.398;-1.514;2023-11-19T05:37:35;12.30;99.90
21104;DHT22;10710;53.398;-1.514;2023-11-19T05:40:19;12.30;99.90
21104;DHT22;10710;53.398;-1.514;2023-11-19T05:43:04;12.20;99.90
21104;DHT22;10710;53.398;-1.514;2023-11-19T05:45:49;12.10;99.90
21104;DHT22;10710;53.398;-1.514;2023-11-19T05:48:33;12.10;99.90
21104;DHT22;10710;53.398;-1.514;2023-11-19T05:51:17;12.10;99.90
21104;DHT22;10710;53.398;-1.514;2023-11-19T05:54:01;12.10;99.90
21104;DHT22;10710;53.398;-1.514;2023-11-19T05:56:48;12.10;99.90
21104;DHT22;10710;53.398;-1.514;2023-11-19T05:59:33;12.10;99.90
21104;DHT22;10710;53.398;-1.514;2023-11-19T06:02:17;12.10;99.90
21104;DHT22;10710;53.398;-1.514;2023-11-19T06:05:02;12.00;99.90
21104;DHT22;10710;53.398;-1.514;2023-11-19T06:07:47;12.10;99.90
21104;DHT22;10710;53.398;-1.514;2023-11-19T06:10:31;12.10;99.90
21104;DHT22;10710;53.398;-1.514;2023-11-19T06:13:15;12.10;99.90
21104;DHT22;10710;53.398;-1.514;2023-11-19T06:16:00;12.00;99.90
21104;DHT22;10710;53.398;-1.514;2023-11-19T06:18:44;12.10;99.90
21104;DHT22;10710;53.398;-1.514;2023-11-19T06:21:29;12.10;99.90
21104;DHT22;10710;53.398;-1.514;2023-11-19T06:24:13;12.20;99.90
21104;DHT22;10710;53.398;-1.514;2023-11-19T06:26:58;12.20;99.90
21104;DHT22;10710;53.398;-1.514;2023-11-19T06:29:42;12.20;99.90
21104;DHT22;10710;53.398;-1.514;2023-11-19T06:32:26;12.30;99.90
21104;DHT22;10710;53.398;-1.514;2023-11-19T06:35:10;12.30;99.90
21104;DHT22;10710;53.398;-1.514;2023-11-19T06:37:55;12.10;99.90
21104;DHT22;10710;53.398;-1.514;2023-11-19T06:40:40;12.20;99.90
21104;DHT22;10710;53.398;-1.514;2023-11-19T06:43:25;12.20;99.90
21104;DHT22;10710;53.398;-1.514;2023-11-19T06:46:16;12.20;99.90
21104;DHT22;10710;53.398;-1.514;2023-11-19T06:49:01;12.30;99.90
21104;DHT22;10710;53.398;-1.514;2023-11-19T06:51:46;12.30;99.90
21104;DHT22;10710;53.398;-1.514;2023-11-19T06:54:30;12.30;99.90
21104;DHT22;10710;53.398;-1.514;2023-11-19T06:57:15;12.30;99.90
21104;DHT22;10710;53.398;-1.514;2023-11-19T07:00:00;12.30;99.90
21104;DHT22;10710;53.398;-1.514;2023-11-19T07:02:44;12.20;99.90
21104;DHT22;10710;53.398;-1.514;2023-11-19T07:05:28;12.20;99.90
21104;DHT22;10710;53.398;-1.514;2023-11-19T07:08:14;12.20;99.90
21104;DHT22;10710;53.398;-1.514;2023-11-19T07:10:58;12.20;99.90
21104;DHT22;10710;53.398;-1.514;2023-11-19T07:13:42;12.10;99.90
21104;DHT22;10710;53.398;-1.514;2023-11-19T07:16:27;12.10;99.90
21104;DHT22;10710;53.398;-1.514;2023-11-19T07:19:11;12.10;99.90
21104;DHT22;10710;53.398;-1.514;2023-11-19T07:21:55;12.10;99.90
21104;DHT22;10710;53.398;-1.514;2023-11-19T07:24:40;12.10;99.90
21104;DHT22;10710;53.398;-1.514;2023-11-19T07:27:25;12.00;99.90
21104;DHT22;10710;53.398;-1.514;2023-11-19T07:30:09;12.00;99.90
21104;DHT22;10710;53.398;-1.514;2023-11-19T07:32:54;11.90;99.90
21104;DHT22;10710;53.398;-1.514;2023-11-19T07:35:38;11.90;99.90
21104;DHT22;10710;53.398;-1.514;2023-11-19T07:38:22;12.00;99.90
21104;DHT22;10710;53.398;-1.514;2023-11-19T07:41:07;11.90;99.90
21104;DHT22;10710;53.398;-1.514;2023-11-19T07:43:54;11.90;99.90
21104;DHT22;10710;53.398;-1.514;2023-11-19T07:46:39;11.90;99.90
21104;DHT22;10710;53.398;-1.514;2023-11-19T07:49:23;11.80;99.90
21104;DHT22;10710;53.398;-1.514;2023-11-19T07:52:07;11.70;99.90
21104;DHT22;10710;53.398;-1.514;2023-11-19T07:54:51;11.80;99.90
21104;DHT22;10710;53.398;-1.514;2023-11-19T07:57:36;11.90;99.90
21104;DHT22;10710;53.398;-1.514;2023-11-19T08:00:20;12.00;99.90
21104;DHT22;10710;53.398;-1.514;2023-11-19T08:03:04;12.00;99.90
21104;DHT22;10710;53.398;-1.514;2023-11-19T08:05:49;12.00;99.90
21104;DHT22;10710;53.398;-1.514;2023-11-19T08:08:33;12.00;99.90
21104;DHT22;10710;53.398;-1.514;2023-11-19T08:11:18;12.10;99.90
21104;DHT22;10710;53.398;-1.514;2023-11-19T08:14:03;12.10;99.90
21104;DHT22;10710;53.398;-1.514;2023-11-19T08:16:47;12.10;99.90
21104;DHT22;10710;53.398;-1.514;2023-11-19T08:19:31;12.20;99.90
21104;DHT22;10710;53.398;-1.514;2023-11-19T08:22:16;12.20;99.90
21104;DHT22;10710;53.398;-1.514;2023-11-19T08:25:06;12.30;99.90
21104;DHT22;10710;53.398;-1.514;2023-11-19T08:27:51;12.30;99.90
21104;DHT22;10710;53.398;-1.514;2023-11-19T08:30:35;12.30;99.90
21104;DHT22;10710;53.398;-1.514;2023-11-19T08:33:19;12.30;99.90
21104;DHT22;10710;53.398;-1.514;2023-11-19T08:36:06;12.40;99.90
21104;DHT22;10710;53.398;-1.514;2023-11-19T08:38:50;12.50;99.90
21104;DHT22;10710;53.398;-1.514;2023-11-19T08:41:36;12.40;99.90
21104;DHT22;10710;53.398;-1.514;2023-11-19T08:44:22;12.40;99.90
21104;DHT22;10710;53.398;-1.514;2023-11-19T08:47:06;12.40;99.90
21104;DHT22;10710;53.398;-1.514;2023-11-19T08:49:53;12.40;99.90
21104;DHT22;10710;53.398;-1.514;2023-11-19T08:52:39;12.30;99.90
21104;DHT22;10710;53.398;-1.514;2023-11-19T08:55:23;12.40;99.90
21104;DHT22;10710;53.398;-1.514;2023-11-19T08:58:07;12.50;99.90
21104;DHT22;10710;53.398;-1.514;2023-11-19T09:00:51;12.60;99.90
21104;DHT22;10710;53.398;-1.514;2023-11-19T09:03:35;12.60;99.90
21104;DHT22;10710;53.398;-1.514;2023-11-19T09:06:21;12.60;99.90
21104;DHT22;10710;53.398;-1.514;2023-11-19T09:09:05;12.60;99.90
21104;DHT22;10710;53.398;-1.514;2023-11-19T09:11:49;12.60;99.90
21104;DHT22;10710;53.398;-1.514;2023-11-19T09:14:34;12.50;99.90
21104;DHT22;10710;53.398;-1.514;2023-11-19T09:17:18;12.60;99.90
21104;DHT22;10710;53.398;-1.514;2023-11-19T09:20:03;12.70;99.90
21104;DHT22;10710;53.398;-1.514;2023-11-19T09:22:47;12.70;99.90
21104;DHT22;10710;53.398;-1.514;2023-11-19T09:25:32;12.60;99.90
21104;DHT22;10710;53.398;-1.514;2023-11-19T09:28:16;12.70;99.90
21104;DHT22;10710;53.398;-1.514;2023-11-19T09:31:00;12.60;99.90
21104;DHT22;10710;53.398;-1.514;2023-11-19T09:33:45;12.80;99.90
21104;DHT22;10710;53.398;-1.514;2023-11-19T09:36:30;12.80;99.90
21104;DHT22;10710;53.398;-1.514;2023-11-19T09:39:14;12.80;99.90
21104;DHT22;10710;53.398;-1.514;2023-11-19T09:41:59;12.80;99.90
21104;DHT22;10710;53.398;-1.514;2023-11-19T09:44:43;12.80;99.90
21104;DHT22;10710;53.398;-1.514;2023-11-19T09:47:27;12.80;99.90
21104;DHT22;10710;53.398;-1.514;2023-11-19T09:50:18;13.00;99.90
21104;DHT22;10710;53.398;-1.514;2023-11-19T09:53:03;13.10;99.90
21104;DHT22;10710;53.398;-1.514;2023-11-19T09:55:48;13.10;99.90
21104;DHT22;10710;53.398;-1.514;2023-11-19T09:58:33;13.10;99.90
21104;DHT22;10710;53.398;-1.514;2023-11-19T10:01:17;13.40;99.90
21104;DHT22;10710;53.398;-1.514;2023-11-19T10:04:02;13.70;99.90
21104;DHT22;10710;53.398;-1.514;2023-11-19T10:06:47;13.60;99.90
21104;DHT22;10710;53.398;-1.514;2023-11-19T10:09:31;13.30;99.90
21104;DHT22;10710;53.398;-1.514;2023-11-19T10:12:16;13.10;99.90
21104;DHT22;10710;53.398;-1.514;2023-11-19T10:15:00;12.90;99.90
21104;DHT22;10710;53.398;-1.514;2023-11-19T10:17:45;12.90;99.90
21104;DHT22;10710;53.398;-1.514;2023-11-19T10:20:29;12.90;99.90
21104;DHT22;10710;53.398;-1.514;2023-11-19T10:23:13;12.90;99.90
21104;DHT22;10710;53.398;-1.514;2023-11-19T10:26:04;12.90;99.90
21104;DHT22;10710;53.398;-1.514;2023-11-19T10:28:51;12.90;99.90
21104;DHT22;10710;53.398;-1.514;2023-11-19T10:31:36;12.90;99.90
21104;DHT22;10710;53.398;-1.514;2023-11-19T10:34:25;13.00;99.90
21104;DHT22;10710;53.398;-1.514;2023-11-19T10:37:27;12.90;99.90
21104;DHT22;10710;53.398;-1.514;2023-11-19T10:40:13;13.00;99.90
21104;DHT22;10710;53.398;-1.514;2023-11-19T10:43:04;13.00;99.90
21104;DHT22;10710;53.398;-1.514;2023-11-19T10:45:48;13.00;99.90
21104;DHT22;10710;53.398;-1.514;2023-11-19T10:48:33;12.90;99.90
21104;DHT22;10710;53.398;-1.514;2023-11-19T10:51:19;13.00;99.90
21104;DHT22;10710;53.398;-1.514;2023-11-19T10:54:09;13.10;99.90
21104;DHT22;10710;53.398;-1.514;2023-11-19T10:56:59;13.20;99.90
21104;DHT22;10710;53.398;-1.514;2023-11-19T10:59:45;13.20;99.90
21104;DHT22;10710;53.398;-1.514;2023-11-19T11:02:35;13.10;99.90
21104;DHT22;10710;53.398;-1.514;2023-11-19T11:05:25;13.30;99.90
21104;DHT22;10710;53.398;-1.514;2023-11-19T11:08:11;13.30;99.90
21104;DHT22;10710;53.398;-1.514;2023-11-19T11:10:56;13.20;99.90
21104;DHT22;10710;53.398;-1.514;2023-11-19T11:13:42;13.20;99.90
21104;DHT22;10710;53.398;-1.514;2023-11-19T11:16:28;13.30;99.90
21104;DHT22;10710;53.398;-1.514;2023-11-19T11:19:13;13.40;99.90
21104;DHT22;10710;53.398;-1.514;2023-11-19T11:21:59;13.40;99.90
21104;DHT22;10710;53.398;-1.514;2023-11-19T11:28:17;13.20;99.90
21104;DHT22;10710;53.398;-1.514;2023-11-19T11:31:34;13.20;99.90
21104;DHT22;10710;53.398;-1.514;2023-11-19T11:37:44;12.90;99.90
21104;DHT22;10710;53.398;-1.514;2023-11-19T11:40:32;13.00;99.90
21104;DHT22;10710;53.398;-1.514;2023-11-19T11:49:25;13.20;99.90
21104;DHT22;10710;53.398;-1.514;2023-11-19T11:52:09;13.20;99.90
21104;DHT22;10710;53.398;-1.514;2023-11-19T11:55:04;13.20;99.90
21104;DHT22;10710;53.398;-1.514;2023-11-19T11:57:52;13.20;99.90
21104;DHT22;10710;53.398;-1.514;2023-11-19T12:00:40;13.30;99.90
21104;DHT22;10710;53.398;-1.514;2023-11-19T12:03:27;13.40;99.90
21104;DHT22;10710;53.398;-1.514;2023-11-19T12:06:12;13.50;99.90
21104;DHT22;10710;53.398;-1.514;2023-11-19T12:09:00;13.50;99.90
21104;DHT22;10710;53.398;-1.514;2023-11-19T12:11:47;13.60;99.90
21104;DHT22;10710;53.398;-1.514;2023-11-19T12:17:50;13.40;99.90
21104;DHT22;10710;53.398;-1.514;2023-11-19T12:20:34;13.40;99.90
21104;DHT22;10710;53.398;-1.514;2023-11-19T12:23:22;13.30;99.90
21104;DHT22;10710;53.398;-1.514;2023-11-19T12:26:07;13.20;99.90
21104;DHT22;10710;53.398;-1.514;2023-11-19T12:28:58;13.30;99.90
21104;DHT22;10710;53.398;-1.514;2023-11-19T12:31:44;13.40;99.90
21104;DHT22;10710;53.398;-1.514;2023-11-19T12:34:29;13.50;99.90
21104;DHT22;10710;53.398;-1.514;2023-11-19T12:37:13;13.70;99.90
21104;DHT22;10710;53.398;-1.514;2023-11-19T12:39:58;13.50;99.90
21104;DHT22;10710;53.398;-1.514;2023-11-19T12:42:43;13.40;99.90
21104;DHT22;10710;53.398;-1.514;2023-11-19T12:45:36;13.40;99.90
21104;DHT22;10710;53.398;-1.514;2023-11-19T12:48:21;13.30;99.90
21104;DHT22;10710;53.398;-1.514;2023-11-19T12:51:05;13.30;99.90
21104;DHT22;10710;53.398;-1.514;2023-11-19T12:53:52;13.40;99.90
21104;DHT22;10710;53.398;-1.514;2023-11-19T12:56:39;13.50;99.90
21104;DHT22;10710;53.398;-1.514;2023-11-19T12:59:25;13.40;99.90
21104;DHT22;10710;53.398;-1.514;2023-11-19T13:02:11;13.50;99.90
21104;DHT22;10710;53.398;-1.514;2023-11-19T13:04:56;13.60;99.90
21104;DHT22;10710;53.398;-1.514;2023-11-19T13:07:40;13.70;99.90
21104;DHT22;10710;53.398;-1.514;2023-11-19T13:10:25;13.50;99.90
21104;DHT22;10710;53.398;-1.514;2023-11-19T13:13:09;13.40;99.90
21104;DHT22;10710;53.398;-1.514;2023-11-19T13:15:53;13.40;99.90
21104;DHT22;10710;53.398;-1.514;2023-11-19T13:18:38;13.30;99.90
21104;DHT22;10710;53.398;-1.514;2023-11-19T13:21:22;13.30;99.90
21104;DHT22;10710;53.398;-1.514;2023-11-19T13:24:07;13.40;99.90
21104;DHT22;10710;53.398;-1.514;2023-11-19T13:26:51;13.30;99.90
21104;DHT22;10710;53.398;-1.514;2023-11-19T13:29:35;13.40;99.90
21104;DHT22;10710;53.398;-1.514;2023-11-19T13:32:19;13.40;99.90
21104;DHT22;10710;53.398;-1.514;2023-11-19T13:35:03;13.50;99.90
21104;DHT22;10710;53.398;-1.514;2023-11-19T13:37:48;13.50;99.90
21104;DHT22;10710;53.398;-1.514;2023-11-19T13:40:32;13.60;99.90
21104;DHT22;10710;53.398;-1.514;2023-11-19T13:43:16;13.60;99.90
21104;DHT22;10710;53.398;-1.514;2023-11-19T13:46:01;13.70;99.90
21104;DHT22;10710;53.398;-1.514;2023-11-19T13:48:45;13.70;99.90
21104;DHT22;10710;53.398;-1.514;2023-11-19T13:51:29;13.60;99.90
21104;DHT22;10710;53.398;-1.514;2023-11-19T13:54:13;13.70;99.90
21104;DHT22;10710;53.398;-1.514;2023-11-19T13:56:58;13.90;99.90
21104;DHT22;10710;53.398;-1.514;2023-11-19T13:59:42;13.80;99.90
21104;DHT22;10710;53.398;-1.514;2023-11-19T14:02:27;13.80;99.90
21104;DHT22;10710;53.398;-1.514;2023-11-19T14:05:12;13.80;99.90
21104;DHT22;10710;53.398;-1.514;2023-11-19T14:07:56;13.90;99.90
21104;DHT22;10710;53.398;-1.514;2023-11-19T14:10:42;13.80;99.90
21104;DHT22;10710;53.398;-1.514;2023-11-19T14:13:26;13.70;99.90
21104;DHT22;10710;53.398;-1.514;2023-11-19T14:16:11;13.70;99.90
21104;DHT22;10710;53.398;-1.514;2023-11-19T14:18:56;13.70;99.90
21104;DHT22;10710;53.398;-1.514;2023-11-19T14:21:41;13.60;99.90
21104;DHT22;10710;53.398;-1.514;2023-11-19T14:24:25;13.40;99.90
21104;DHT22;10710;53.398;-1.514;2023-11-19T14:27:10;13.40;99.90
21104;DHT22;10710;53.398;-1.514;2023-11-19T14:29:54;13.40;99.90
21104;DHT22;10710;53.398;-1.514;2023-11-19T14:32:42;13.30;99.90
21104;DHT22;10710;53.398;-1.514;2023-11-19T14:35:28;13.30;99.90
21104;DHT22;10710;53.398;-1.514;2023-11-19T14:38:14;13.30;99.90
21104;DHT22;10710;53.398;-1.514;2023-11-19T14:40:58;13.20;99.90
21104;DHT22;10710;53.398;-1.514;2023-11-19T14:43:43;13.20;99.90
21104;DHT22;10710;53.398;-1.514;2023-11-19T14:46:27;13.20;99.90
21104;DHT22;10710;53.398;-1.514;2023-11-19T14:49:11;13.20;99.90
21104;DHT22;10710;53.398;-1.514;2023-11-19T14:51:55;13.20;99.90
21104;DHT22;10710;53.398;-1.514;2023-11-19T14:54:40;13.30;99.90
21104;DHT22;10710;53.398;-1.514;2023-11-19T14:57:24;13.30;99.90
21104;DHT22;10710;53.398;-1.514;2023-11-19T15:00:09;13.30;99.90
21104;DHT22;10710;53.398;-1.514;2023-11-19T15:02:57;13.30;99.90
21104;DHT22;10710;53.398;-1.514;2023-11-19T15:05:41;13.20;99.90
21104;DHT22;10710;53.398;-1.514;2023-11-19T15:08:26;13.20;99.90
21104;DHT22;10710;53.398;-1.514;2023-11-19T15:11:10;13.10;99.90
21104;DHT22;10710;53.398;-1.514;2023-11-19T15:13:56;13.00;99.90
21104;DHT22;10710;53.398;-1.514;2023-11-19T15:16:40;13.10;99.90
21104;DHT22;10710;53.398;-1.514;2023-11-19T15:19:24;13.10;99.90
21104;DHT22;10710;53.398;-1.514;2023-11-19T15:22:09;13.00;99.90
21104;DHT22;10710;53.398;-1.514;2023-11-19T15:24:55;13.00;99.90
21104;DHT22;10710;53.398;-1.514;2023-11-19T15:27:39;13.00;99.90
21104;DHT22;10710;53.398;-1.514;2023-11-19T15:30:23;13.00;99.90
21104;DHT22;10710;53.398;-1.514;2023-11-19T15:33:09;13.10;99.90
21104;DHT22;10710;53.398;-1.514;2023-11-19T15:35:53;13.10;99.90
21104;DHT22;10710;53.398;-1.514;2023-11-19T15:38:37;13.00;99.90
21104;DHT22;10710;53.398;-1.514;2023-11-19T15:41:21;13.00;99.90
21104;DHT22;10710;53.398;-1.514;2023-11-19T15:44:05;12.90;99.90
21104;DHT22;10710;53.398;-1.514;2023-11-19T15:46:50;13.10;99.90
21104;DHT22;10710;53.398;-1.514;2023-11-19T15:49:34;13.00;99.90
21104;DHT22;10710;53.398;-1.514;2023-11-19T15:52:18;13.00;99.90
21104;DHT22;10710;53.398;-1.514;2023-11-19T15:55:02;13.00;99.90
21104;DHT22;10710;53.398;-1.514;2023-11-19T15:57:47;13.10;99.90
21104;DHT22;10710;53.398;-1.514;2023-11-19T16:00:32;13.00;99.90
21104;DHT22;10710;53.398;-1.514;2023-11-19T16:03:16;13.00;99.90
21104;DHT22;10710;53.398;-1.514;2023-11-19T16:06:01;13.10;99.90
21104;DHT22;10710;53.398;-1.514;2023-11-19T16:08:45;13.20;99.90
21104;DHT22;10710;53.398;-1.514;2023-11-19T16:11:29;13.10;99.90
21104;DHT22;10710;53.398;-1.514;2023-11-19T16:14:13;13.00;99.90
21104;DHT22;10710;53.398;-1.514;2023-11-19T16:16:58;12.90;99.90
21104;DHT22;10710;53.398;-1.514;2023-11-19T16:19:42;13.00;99.90
21104;DHT22;10710;53.398;-1.514;2023-11-19T16:22:28;13.10;99.90
21104;DHT22;10710;53.398;-1.514;2023-11-19T16:25:12;13.10;99.90
21104;DHT22;10710;53.398;-1.514;2023-11-19T16:27:58;13.10;99.90
21104;DHT22;10710;53.398;-1.514;2023-11-19T16:30:43;13.00;99.90
21104;DHT22;10710;53.398;-1.514;2023-11-19T16:33:27;13.00;99.90
21104;DHT22;10710;53.398;-1.514;2023-11-19T16:36:12;13.00;99.90
21104;DHT22;10710;53.398;-1.514;2023-11-19T16:38:59;13.00;99.90
21104;DHT22;10710;53.398;-1.514;2023-11-19T16:41:44;12.90;99.90
21104;DHT22;10710;53.398;-1.514;2023-11-19T16:44:28;12.90;99.90
21104;DHT22;10710;53.398;-1.514;2023-11-19T16:47:12;12.90;99.90
21104;DHT22;10710;53.398;-1.514;2023-11-19T16:49:56;12.90;99.90
21104;DHT22;10710;53.398;-1.514;2023-11-19T16:52:40;12.90;99.90
21104;DHT22;10710;53.398;-1.514;2023-11-19T16:55:24;12.90;99.90
21104;DHT22;10710;53.398;-1.514;2023-11-19T16:58:09;12.90;99.90
21104;DHT22;10710;53.398;-1.514;2023-11-19T17:00:56;12.80;99.90
21104;DHT22;10710;53.398;-1.514;2023-11-19T17:03:41;12.90;99.90
21104;DHT22;10710;53.398;-1.514;2023-11-19T17:06:26;12.90;99.90
21104;DHT22;10710;53.398;-1.514;2023-11-19T17:09:10;12.90;99.90
21104;DHT22;10710;53.398;-1.514;2023-11-19T17:11:56;12.90;99.90
21104;DHT22;10710;53.398;-1.514;2023-11-19T17:14:40;12.80;99.90
21104;DHT22;10710;53.398;-1.514;2023-11-19T17:17:25;12.80;99.90
21104;DHT22;10710;53.398;-1.514;2023-11-19T17:20:17;12.80;99.90
21104;DHT22;10710;53.398;-1.514;2023-11-19T17:23:01;12.70;99.90